createdAt,value
2017-12-01T00:01:00.369Z,99.90
2017-12-01T00:03:28.689Z,99.90
2017-12-01T00:05:57.786Z,99.90
2017-12-01T00:08:26.107Z,99.90
2017-12-01T00:10:54.408Z,99.90
2017-12-01T00:13:22.736Z,99.90
2017-12-01T00:15:51.061Z,99.90
2017-12-01T00:18:19.369Z,99.90
2017-12-01T00:20:47.712Z,99.90
2017-12-01T00:23:16.048Z,99.90
2017-12-01T00:25:44.667Z,99.90
2017-12-01T00:28:12.984Z,99.90
2017-12-01T00:30:41.310Z,99.90
2017-12-01T00:33:10.417Z,99.90
2017-12-01T00:35:38.704Z,99.90
2017-12-01T00:38:07.013Z,99.90
2017-12-01T00:40:35.345Z,99.90
2017-12-01T00:43:03.678Z,99.90
2017-12-01T00:45:32.857Z,99.90
2017-12-01T00:48:01.961Z,99.90
2017-12-01T00:50:30.279Z,99.90
2017-12-01T00:52:59.385Z,99.90
2017-12-01T00:55:28.490Z,99.90
2017-12-01T00:57:56.786Z,99.90
2017-12-01T01:00:25.844Z,99.90
2017-12-01T01:02:54.174Z,99.90
2017-12-01T01:05:22.468Z,99.90
2017-12-01T01:07:50.760Z,99.90
2017-12-01T01:10:19.075Z,99.90
2017-12-01T01:12:47.448Z,99.60
2017-12-01T01:15:15.812Z,99.90
2017-12-01T01:17:44.147Z,99.90
2017-12-01T01:20:12.460Z,99.90
2017-12-01T01:22:40.761Z,99.90
2017-12-01T01:25:09.073Z,99.90
2017-12-01T01:27:37.402Z,99.90
2017-12-01T01:30:05.749Z,99.90
2017-12-01T01:32:34.038Z,99.70
2017-12-01T01:35:02.327Z,99.80
2017-12-01T01:37:31.437Z,99.90
2017-12-01T01:39:59.748Z,99.90
2017-12-01T01:42:28.829Z,99.90
2017-12-01T01:44:57.136Z,99.70
2017-12-01T01:47:25.516Z,99.50
2017-12-01T01:49:54.629Z,99.50
2017-12-01T01:52:22.917Z,99.00
2017-12-01T01:54:51.222Z,99.80
2017-12-01T01:57:19.532Z,99.90
2017-12-01T01:59:47.813Z,99.90
2017-12-01T02:02:16.143Z,99.90
2017-12-01T02:04:44.489Z,99.90
2017-12-01T02:07:12.789Z,99.90
2017-12-01T02:09:41.124Z,99.90
2017-12-01T02:12:10.178Z,99.90
2017-12-01T02:14:38.477Z,99.90
2017-12-01T02:17:06.862Z,99.90
2017-12-01T02:19:37.135Z,99.90
2017-12-01T02:22:05.541Z,99.90
2017-12-01T02:24:34.973Z,99.90
2017-12-01T02:27:03.303Z,99.90
2017-12-01T02:29:31.621Z,99.90
2017-12-01T02:31:59.926Z,99.90
2017-12-01T02:34:28.218Z,99.90
2017-12-01T02:36:56.682Z,99.90
2017-12-01T02:39:24.994Z,99.90
2017-12-01T02:41:53.320Z,99.90
2017-12-01T02:44:21.713Z,99.90
2017-12-01T02:46:52.024Z,99.90
2017-12-01T02:49:24.612Z,99.90
2017-12-01T02:51:52.902Z,99.90
2017-12-01T02:54:21.187Z,99.90
2017-12-01T02:56:49.499Z,99.90
2017-12-01T02:59:17.795Z,99.90
2017-12-01T03:01:47.140Z,99.90
2017-12-01T03:04:15.487Z,99.90
2017-12-01T03:06:44.587Z,99.90
2017-12-01T03:09:12.878Z,99.90
2017-12-01T03:11:41.210Z,99.90
2017-12-01T03:14:21.468Z,99.90
2017-12-01T03:16:49.802Z,99.90
2017-12-01T03:19:18.855Z,99.90
2017-12-01T03:21:59.111Z,99.90
2017-12-01T03:24:28.182Z,99.90
2017-12-01T03:26:56.490Z,99.90
2017-12-01T03:29:24.814Z,99.90
2017-12-01T03:31:53.111Z,99.90
2017-12-01T03:34:22.243Z,99.90
2017-12-01T03:36:50.534Z,99.90
2017-12-01T03:39:18.831Z,99.90
2017-12-01T03:41:47.155Z,99.90
2017-12-01T03:44:15.474Z,99.90
2017-12-01T03:46:43.801Z,99.90
2017-12-01T03:49:12.130Z,99.90
2017-12-01T03:51:40.458Z,99.90
2017-12-01T03:54:08.811Z,99.90
2017-12-01T03:56:37.144Z,99.90
2017-12-01T03:59:07.172Z,99.90
2017-12-01T04:01:36.602Z,99.90
2017-12-01T04:04:04.955Z,99.90
2017-12-01T04:06:33.353Z,99.90
2017-12-01T04:09:01.804Z,99.90
2017-12-01T04:11:30.144Z,99.90
2017-12-01T04:13:58.436Z,99.90
2017-12-01T04:16:26.744Z,99.90
2017-12-01T04:18:55.070Z,99.90
2017-12-01T04:21:24.146Z,99.90
2017-12-01T04:23:52.443Z,99.90
2017-12-01T04:26:20.790Z,99.90
2017-12-01T04:28:49.204Z,99.90
2017-12-01T04:31:17.514Z,99.90
2017-12-01T04:33:46.628Z,99.90
2017-12-01T04:36:14.938Z,99.90
2017-12-01T04:38:43.231Z,99.90
2017-12-01T04:41:12.341Z,99.90
2017-12-01T04:43:40.724Z,99.90
2017-12-01T04:46:09.066Z,99.90
2017-12-01T04:48:38.110Z,99.90
2017-12-01T04:51:06.431Z,99.90
2017-12-01T04:53:34.867Z,99.90
2017-12-01T04:56:03.235Z,99.90
2017-12-01T04:58:31.543Z,99.90
2017-12-01T05:00:59.922Z,99.90
2017-12-01T05:03:31.251Z,99.90
2017-12-01T05:05:59.560Z,99.90
2017-12-01T05:08:27.855Z,99.90
2017-12-01T05:10:56.178Z,99.90
2017-12-01T05:13:26.256Z,99.90
2017-12-01T05:15:54.607Z,99.90
2017-12-01T05:18:22.891Z,99.90
2017-12-01T05:20:51.224Z,99.90
2017-12-01T05:23:19.569Z,99.90
2017-12-01T05:25:47.991Z,99.90
2017-12-01T05:28:24.021Z,99.90
2017-12-01T05:30:52.427Z,99.90
2017-12-01T05:33:21.524Z,99.90
2017-12-01T05:35:49.814Z,99.90
2017-12-01T05:38:18.140Z,99.90
2017-12-01T05:40:46.481Z,99.90
2017-12-01T05:43:17.590Z,99.90
2017-12-01T05:45:45.892Z,99.90
2017-12-01T05:48:14.228Z,99.90
2017-12-01T05:50:42.624Z,99.90
2017-12-01T05:53:10.931Z,99.90
2017-12-01T05:55:39.292Z,99.90
2017-12-01T05:58:07.635Z,99.90
2017-12-01T06:00:36.056Z,99.90
2017-12-01T06:03:05.400Z,99.90
2017-12-01T06:05:33.770Z,99.90
2017-12-01T06:08:02.082Z,99.90
2017-12-01T06:10:30.465Z,99.90
2017-12-01T06:13:01.884Z,99.90
2017-12-01T06:15:30.273Z,99.90
2017-12-01T06:18:03.543Z,99.90
2017-12-01T06:20:31.899Z,99.90
2017-12-01T06:23:08.763Z,99.90
2017-12-01T06:25:37.094Z,99.90
2017-12-01T06:28:05.443Z,99.90
2017-12-01T06:30:33.778Z,99.90
2017-12-01T06:33:02.090Z,99.90
2017-12-01T06:35:30.430Z,99.90
2017-12-01T06:37:59.507Z,99.90
2017-12-01T06:40:27.853Z,99.90
2017-12-01T06:42:56.177Z,99.90
2017-12-01T06:45:24.502Z,99.90
2017-12-01T06:47:53.130Z,99.90
2017-12-01T06:50:21.635Z,99.90
2017-12-01T06:52:50.176Z,99.90
2017-12-01T06:55:18.528Z,99.90
2017-12-01T06:57:46.822Z,99.90
2017-12-01T07:00:15.111Z,99.90
2017-12-01T07:02:44.230Z,99.90
2017-12-01T07:05:12.573Z,99.90
2017-12-01T07:07:40.918Z,99.90
2017-12-01T07:10:22.704Z,99.90
2017-12-01T07:12:51.784Z,99.90
2017-12-01T07:15:21.852Z,99.90
2017-12-01T07:17:50.179Z,99.90
2017-12-01T07:20:24.553Z,99.90
2017-12-01T07:22:53.695Z,99.90
2017-12-01T07:25:22.060Z,99.90
2017-12-01T07:27:57.647Z,99.90
2017-12-01T07:30:25.979Z,99.90
2017-12-01T07:32:55.060Z,99.90
2017-12-01T07:35:30.277Z,99.90
2017-12-01T07:37:59.634Z,99.90
2017-12-01T07:40:27.987Z,99.90
2017-12-01T07:42:56.299Z,99.90
2017-12-01T07:45:27.864Z,99.90
2017-12-01T07:47:56.167Z,99.90
2017-12-01T07:50:24.481Z,99.90
2017-12-01T07:52:52.851Z,99.90
2017-12-01T07:55:21.164Z,99.90
2017-12-01T07:57:49.779Z,99.90
2017-12-01T08:00:19.104Z,99.90
2017-12-01T08:02:47.430Z,99.90
2017-12-01T08:05:15.760Z,99.90
2017-12-01T08:07:44.548Z,99.90
2017-12-01T08:10:13.214Z,99.90
2017-12-01T08:12:41.532Z,99.90
2017-12-01T08:15:11.556Z,99.90
2017-12-01T08:17:39.890Z,99.90
2017-12-01T08:20:09.149Z,99.90
2017-12-01T08:22:52.270Z,99.90
2017-12-01T08:25:32.158Z,99.90
2017-12-01T08:28:01.315Z,99.90
2017-12-01T08:30:29.851Z,99.90
2017-12-01T08:32:58.247Z,99.90
2017-12-01T08:35:26.530Z,99.90
2017-12-01T08:37:54.866Z,99.90
2017-12-01T08:40:23.192Z,99.90
2017-12-01T08:42:51.515Z,99.90
2017-12-01T08:45:34.167Z,99.90
2017-12-01T08:48:02.543Z,99.90
2017-12-01T08:50:30.856Z,99.90
2017-12-01T08:52:59.927Z,99.90
2017-12-01T08:55:28.240Z,99.90
2017-12-01T08:57:56.566Z,99.90
2017-12-01T09:00:24.927Z,99.90
2017-12-01T09:02:53.332Z,99.90
2017-12-01T09:05:21.629Z,99.90
2017-12-01T09:07:50.089Z,99.90
2017-12-01T09:10:18.462Z,99.90
2017-12-01T09:12:46.792Z,99.90
2017-12-01T09:15:15.153Z,99.90
2017-12-01T09:17:44.329Z,99.90
2017-12-01T09:20:12.669Z,95.30
2017-12-01T09:22:40.985Z,94.60
2017-12-01T09:25:09.287Z,92.30
2017-12-01T09:27:38.407Z,91.80
2017-12-01T09:30:07.138Z,91.20
2017-12-01T09:32:36.539Z,94.20
2017-12-01T09:35:04.893Z,90.50
2017-12-01T09:37:33.426Z,89.00
2017-12-01T09:40:01.692Z,84.60
2017-12-01T09:42:30.904Z,80.30
2017-12-01T09:45:00.394Z,78.20
2017-12-01T09:47:28.653Z,80.70
2017-12-01T09:49:57.061Z,78.50
2017-12-01T09:52:25.452Z,78.10
2017-12-01T09:54:55.822Z,73.40
2017-12-01T09:57:24.159Z,71.00
2017-12-01T09:59:52.486Z,71.30
2017-12-01T10:02:21.581Z,69.90
2017-12-01T10:04:49.915Z,69.90
2017-12-01T10:07:18.326Z,69.80
2017-12-01T10:09:46.663Z,64.30
2017-12-01T10:12:15.711Z,63.60
2017-12-01T10:14:44.035Z,63.40
2017-12-01T10:17:13.091Z,61.50
2017-12-01T10:19:41.582Z,64.70
2017-12-01T10:22:11.896Z,65.40
2017-12-01T10:24:40.195Z,67.10
2017-12-01T10:27:08.498Z,63.60
2017-12-01T10:29:37.083Z,62.50
2017-12-01T10:32:05.476Z,61.40
2017-12-01T10:34:33.779Z,63.20
2017-12-01T10:37:03.216Z,65.00
2017-12-01T10:39:31.547Z,68.40
2017-12-01T10:42:00.665Z,71.90
2017-12-01T10:44:32.102Z,71.90
2017-12-01T10:47:00.456Z,71.70
2017-12-01T10:49:29.748Z,73.40
2017-12-01T10:51:58.077Z,73.50
2017-12-01T10:54:26.411Z,74.60
2017-12-01T10:56:54.776Z,77.00
2017-12-01T10:59:24.073Z,77.50
2017-12-01T11:01:52.403Z,77.60
2017-12-01T11:04:20.778Z,77.80
2017-12-01T11:06:49.073Z,79.30
2017-12-01T11:09:17.379Z,78.90
2017-12-01T11:11:45.722Z,78.70
2017-12-01T11:14:14.040Z,79.10
2017-12-01T11:16:43.273Z,79.90
2017-12-01T11:19:15.387Z,78.90
2017-12-01T11:21:43.736Z,79.70
2017-12-01T11:24:12.057Z,79.90
2017-12-01T11:26:40.435Z,78.80
2017-12-01T11:29:08.782Z,79.70
2017-12-01T11:31:37.139Z,76.30
2017-12-01T11:34:05.495Z,78.50
2017-12-01T11:36:34.649Z,76.40
2017-12-01T11:39:03.003Z,76.40
2017-12-01T11:41:31.324Z,78.10
2017-12-01T11:43:59.620Z,75.10
2017-12-01T11:46:27.979Z,75.10
2017-12-01T11:48:56.324Z,73.20
2017-12-01T11:51:24.626Z,73.80
2017-12-01T11:53:52.929Z,73.90
2017-12-01T11:56:21.277Z,74.60
2017-12-01T11:58:49.563Z,73.60
2017-12-01T12:01:17.906Z,73.80
2017-12-01T12:03:46.223Z,74.00
2017-12-01T12:06:14.795Z,74.40
2017-12-01T12:08:43.325Z,74.10
2017-12-01T12:11:16.763Z,75.60
2017-12-01T12:13:45.086Z,74.80
2017-12-01T12:16:13.444Z,74.60
2017-12-01T12:18:41.780Z,75.90
2017-12-01T12:21:10.108Z,75.50
2017-12-01T12:23:39.463Z,73.50
2017-12-01T12:26:09.541Z,72.60
2017-12-01T12:28:43.068Z,72.70
2017-12-01T12:31:11.368Z,68.50
2017-12-01T12:33:39.691Z,69.60
2017-12-01T12:36:25.004Z,72.10
2017-12-01T12:38:54.108Z,71.90
2017-12-01T12:41:22.403Z,71.80
2017-12-01T12:43:50.703Z,69.30
2017-12-01T12:46:19.802Z,66.40
2017-12-01T12:48:48.227Z,66.30
2017-12-01T12:51:40.302Z,67.70
2017-12-01T12:54:08.667Z,69.90
2017-12-01T12:56:44.454Z,70.60
2017-12-01T12:59:19.056Z,71.20
2017-12-01T13:01:47.423Z,72.70
2017-12-01T13:04:15.905Z,73.90
2017-12-01T13:08:57.567Z,74.60
2017-12-01T13:11:25.999Z,74.80
2017-12-01T13:14:10.510Z,74.60
2017-12-01T13:16:59.916Z,74.50
2017-12-01T13:19:32.093Z,74.90
2017-12-01T13:22:01.752Z,75.50
2017-12-01T13:24:30.871Z,73.30
2017-12-01T13:27:00.997Z,73.70
2017-12-01T13:29:29.326Z,73.20
2017-12-01T13:31:58.575Z,71.10
2017-12-01T13:34:39.906Z,72.00
2017-12-01T13:37:08.216Z,73.60
2017-12-01T13:39:36.516Z,73.50
2017-12-01T13:42:05.555Z,70.90
2017-12-01T13:44:36.583Z,71.00
2017-12-01T13:47:04.938Z,70.50
2017-12-01T13:49:41.694Z,70.50
2017-12-01T13:52:09.966Z,70.20
2017-12-01T13:54:38.287Z,70.80
2017-12-01T13:57:06.812Z,71.40
2017-12-01T13:59:35.966Z,72.80
2017-12-01T14:02:05.247Z,74.20
2017-12-01T14:04:33.551Z,72.40
2017-12-01T14:07:01.851Z,73.00
2017-12-01T14:09:32.529Z,73.00
2017-12-01T14:12:00.828Z,74.30
2017-12-01T14:14:30.685Z,73.60
2017-12-01T14:16:59.091Z,73.60
2017-12-01T14:19:27.459Z,73.00
2017-12-01T14:21:55.796Z,72.10
2017-12-01T14:24:24.106Z,72.70
2017-12-01T14:26:52.403Z,73.40
2017-12-01T14:29:20.724Z,72.30
2017-12-01T14:31:49.064Z,73.60
2017-12-01T14:34:18.843Z,73.50
2017-12-01T14:36:48.114Z,73.50
2017-12-01T14:39:16.450Z,74.30
2017-12-01T14:41:44.751Z,75.10
2017-12-01T14:44:13.813Z,74.80
2017-12-01T14:46:44.110Z,74.70
2017-12-01T14:49:12.395Z,74.70
2017-12-01T14:51:40.726Z,75.50
2017-12-01T14:54:09.822Z,75.40
2017-12-01T14:56:38.123Z,75.40
2017-12-01T14:59:06.430Z,74.60
2017-12-01T15:01:34.753Z,74.00
2017-12-01T15:04:03.882Z,74.10
2017-12-01T15:06:33.214Z,74.10
2017-12-01T15:09:01.498Z,75.00
2017-12-01T15:11:30.612Z,76.70
2017-12-01T15:13:58.898Z,76.70
2017-12-01T15:16:27.223Z,76.90
2017-12-01T15:18:55.531Z,76.20
2017-12-01T15:21:24.642Z,73.90
2017-12-01T15:23:52.985Z,73.90
2017-12-01T15:26:21.255Z,73.80
2017-12-01T15:28:50.548Z,73.80
2017-12-01T15:31:18.847Z,73.80
2017-12-01T15:33:47.174Z,74.20
2017-12-01T15:36:15.458Z,75.20
2017-12-01T15:38:43.790Z,74.30
2017-12-01T15:41:12.088Z,73.90
2017-12-01T15:43:40.365Z,74.30
2017-12-01T15:46:08.686Z,74.40
2017-12-01T15:48:36.979Z,74.80
2017-12-01T15:51:05.294Z,74.50
2017-12-01T15:53:34.374Z,75.30
2017-12-01T15:56:02.758Z,75.30
2017-12-01T15:58:31.135Z,76.00
2017-12-01T16:00:59.436Z,73.70
2017-12-01T16:03:27.714Z,72.70
2017-12-01T16:05:56.022Z,72.10
2017-12-01T16:08:24.333Z,73.30
2017-12-01T16:10:52.622Z,74.10
2017-12-01T16:13:21.858Z,74.80
2017-12-01T16:15:50.170Z,74.90
2017-12-01T16:18:18.469Z,75.10
2017-12-01T16:20:46.770Z,75.70
2017-12-01T16:23:15.082Z,77.10
2017-12-01T16:25:44.131Z,75.60
2017-12-01T16:28:12.406Z,75.60
2017-12-01T16:30:40.702Z,73.90
2017-12-01T16:33:09.761Z,75.70
2017-12-01T16:35:38.093Z,75.60
2017-12-01T16:38:06.384Z,77.70
2017-12-01T16:40:34.694Z,76.60
2017-12-01T16:43:03.048Z,76.00
2017-12-01T16:45:31.373Z,76.60
2017-12-01T16:47:59.687Z,77.20
2017-12-01T16:50:27.964Z,76.40
2017-12-01T16:52:56.281Z,76.00
2017-12-01T16:55:24.577Z,76.00
2017-12-01T16:57:52.867Z,76.40
2017-12-01T17:00:21.178Z,76.70
2017-12-01T17:02:49.455Z,76.80
2017-12-01T17:05:17.752Z,76.00
2017-12-01T17:07:46.868Z,75.30
2017-12-01T17:10:15.964Z,74.70
2017-12-01T17:12:44.254Z,74.60
2017-12-01T17:15:12.539Z,77.10
2017-12-01T17:17:40.850Z,77.70
2017-12-01T17:20:09.142Z,77.80
2017-12-01T17:22:37.438Z,76.60
2017-12-01T17:25:05.769Z,76.80
2017-12-01T17:27:34.074Z,76.10
2017-12-01T17:30:02.375Z,76.30
2017-12-01T17:32:30.692Z,77.40
2017-12-01T17:34:59.753Z,77.60
2017-12-01T17:37:28.041Z,77.60
2017-12-01T17:40:02.322Z,78.00
2017-12-01T17:42:30.654Z,78.00
2017-12-01T17:44:59.745Z,76.40
2017-12-01T17:47:28.844Z,76.30
2017-12-01T17:49:57.977Z,74.30
2017-12-01T17:52:26.283Z,74.30
2017-12-01T17:54:54.603Z,76.30
2017-12-01T17:57:22.936Z,76.20
2017-12-01T17:59:51.225Z,76.70
2017-12-01T18:02:19.548Z,76.50
2017-12-01T18:04:47.877Z,76.80
2017-12-01T18:07:16.178Z,77.30
2017-12-01T18:09:45.252Z,79.00
2017-12-01T18:12:13.585Z,78.90
2017-12-01T18:14:41.890Z,79.30
2017-12-01T18:17:10.221Z,80.30
2017-12-01T18:19:38.588Z,80.60
2017-12-01T18:22:06.894Z,81.00
2017-12-01T18:24:35.206Z,81.10
2017-12-01T18:27:03.539Z,81.70
2017-12-01T18:29:31.875Z,81.90
2017-12-01T18:32:00.943Z,83.10
2017-12-01T18:34:29.252Z,83.10
2017-12-01T18:36:57.565Z,83.60
2017-12-01T18:39:25.856Z,84.40
2017-12-01T18:41:54.200Z,84.30
2017-12-01T18:44:23.554Z,84.70
2017-12-01T18:46:51.892Z,84.70
2017-12-01T18:49:20.219Z,86.30
2017-12-01T18:51:48.580Z,86.60
2017-12-01T18:54:16.896Z,86.60
2017-12-01T18:56:45.957Z,86.40
2017-12-01T18:59:14.331Z,86.30
2017-12-01T19:01:42.630Z,86.80
2017-12-01T19:04:10.934Z,88.10
2017-12-01T19:06:39.277Z,88.10
2017-12-01T19:09:07.586Z,88.50
2017-12-01T19:11:35.909Z,88.40
2017-12-01T19:14:04.202Z,88.60
2017-12-01T19:16:32.519Z,88.90
2017-12-01T19:19:01.563Z,89.60
2017-12-01T19:21:29.884Z,89.40
2017-12-01T19:23:58.965Z,90.70
2017-12-01T19:26:28.030Z,91.70
2017-12-01T19:28:56.352Z,91.40
2017-12-01T19:31:25.426Z,91.70
2017-12-01T19:33:53.760Z,91.40
2017-12-01T19:36:22.105Z,92.30
2017-12-01T19:38:50.413Z,93.20
2017-12-01T19:41:18.752Z,93.70
2017-12-01T19:43:47.817Z,93.90
2017-12-01T19:46:16.199Z,93.50
2017-12-01T19:48:48.153Z,94.10
2017-12-01T19:51:16.501Z,95.00
2017-12-01T19:53:44.856Z,94.20
2017-12-01T19:56:13.222Z,94.60
2017-12-01T19:58:42.282Z,95.10
2017-12-01T20:01:11.409Z,95.10
2017-12-01T20:03:40.504Z,95.50
2017-12-01T20:06:09.574Z,95.50
2017-12-01T20:08:37.911Z,95.10
2017-12-01T20:11:06.214Z,95.50
2017-12-01T20:13:34.540Z,96.00
2017-12-01T20:16:02.849Z,95.60
2017-12-01T20:18:32.282Z,95.20
2017-12-01T20:21:01.425Z,95.20
2017-12-01T20:23:29.746Z,94.80
2017-12-01T20:25:58.048Z,94.80
2017-12-01T20:28:27.294Z,94.70
2017-12-01T20:30:55.625Z,94.10
2017-12-01T20:33:24.155Z,94.20
2017-12-01T20:35:53.517Z,93.80
2017-12-01T20:38:22.832Z,93.70
2017-12-01T20:40:51.242Z,93.40
2017-12-01T20:43:20.347Z,93.20
2017-12-01T20:45:49.578Z,92.90
2017-12-01T20:48:18.649Z,92.90
2017-12-01T20:50:47.215Z,92.40
2017-12-01T20:53:15.682Z,92.90
2017-12-01T20:55:44.806Z,92.60
2017-12-01T20:58:13.257Z,92.20
2017-12-01T21:00:41.623Z,92.00
2017-12-01T21:03:10.268Z,92.30
2017-12-01T21:05:38.567Z,92.50
2017-12-01T21:08:06.904Z,92.50
2017-12-01T21:10:35.215Z,92.60
2017-12-01T21:13:04.642Z,93.40
2017-12-01T21:15:32.976Z,93.00
2017-12-01T21:18:01.286Z,93.60
2017-12-01T21:20:29.625Z,93.10
2017-12-01T21:22:57.937Z,93.40
2017-12-01T21:25:26.306Z,93.40
2017-12-01T21:27:55.574Z,94.00
2017-12-01T21:30:23.906Z,93.60
2017-12-01T21:32:52.228Z,94.30
2017-12-01T21:35:20.605Z,94.60
2017-12-01T21:37:49.095Z,95.00
2017-12-01T21:40:17.531Z,95.00
2017-12-01T21:42:45.858Z,95.50
2017-12-01T21:45:14.150Z,95.50
2017-12-01T21:47:43.249Z,96.30
2017-12-01T21:50:12.420Z,96.80
2017-12-01T21:52:41.637Z,96.80
2017-12-01T21:55:10.952Z,96.90
2017-12-01T21:57:39.599Z,96.40
2017-12-01T22:00:07.901Z,97.30
2017-12-01T22:02:37.002Z,98.00
2017-12-01T22:05:05.336Z,97.40
2017-12-01T22:07:33.668Z,98.50
2017-12-01T22:10:01.988Z,98.50
2017-12-01T22:12:30.323Z,98.80
2017-12-01T22:14:58.666Z,99.50
2017-12-01T22:17:26.976Z,99.80
2017-12-01T22:19:55.312Z,99.90
2017-12-01T22:22:23.611Z,99.90
2017-12-01T22:24:52.725Z,99.90
2017-12-01T22:27:21.080Z,99.90
2017-12-01T22:29:49.378Z,99.90
2017-12-01T22:32:17.682Z,99.90
2017-12-01T22:34:46.023Z,99.90
2017-12-01T22:37:20.040Z,99.90
2017-12-01T22:39:48.345Z,99.90
2017-12-01T22:42:16.735Z,99.90
2017-12-01T22:44:45.046Z,99.90
2017-12-01T22:47:13.356Z,99.90
2017-12-01T22:49:41.697Z,99.90
2017-12-01T22:52:10.029Z,99.90
2017-12-01T22:54:38.431Z,99.90
2017-12-01T22:57:06.749Z,99.90
2017-12-01T22:59:35.864Z,99.90
2017-12-01T23:02:04.273Z,99.90
2017-12-01T23:04:32.637Z,99.90
2017-12-01T23:07:07.442Z,99.90
2017-12-01T23:09:35.767Z,99.90
2017-12-01T23:12:04.100Z,99.90
2017-12-01T23:14:32.409Z,99.90
2017-12-01T23:17:00.744Z,99.90
2017-12-01T23:19:29.072Z,99.90
2017-12-01T23:21:57.370Z,99.90
2017-12-01T23:24:26.432Z,99.90
2017-12-01T23:26:54.746Z,99.90
2017-12-01T23:29:23.048Z,99.90
2017-12-01T23:31:51.360Z,99.90
2017-12-01T23:34:19.652Z,99.90
2017-12-01T23:36:47.994Z,99.90
2017-12-01T23:39:16.293Z,99.90
2017-12-01T23:41:44.668Z,99.90
2017-12-01T23:44:12.969Z,99.90
2017-12-01T23:46:41.304Z,99.90
2017-12-01T23:49:09.628Z,99.90
2017-12-01T23:51:37.928Z,99.90
2017-12-01T23:54:07.035Z,99.90
2017-12-01T23:56:35.333Z,99.90
2017-12-01T23:59:03.655Z,99.90
